Time;durP1;ratioP1;P1;durP2;ratioP2;P2;SDS_P1;SDS_P2;PMS_P1;PMS_P2;Temp;Humidity;BMP_temperature;BMP_pressure;BME280_temperature;BME280_humidity;BME280_pressure;Samples;Min_cycle;Max_cycle;Signal;HPM_P1;HPM_P2
2022/09/14 00:00:54;;;;;;;11.50;3.00;;;;;;;;;;4985324;28;20041;-82
2022/09/14 00:03:20;;;;;;;8.90;3.25;;;;;;;;;;4981341;28;20034;-82
2022/09/14 00:05:46;;;;;;;5.68;2.70;;;;;;;;;;5002073;28;20033;-82
2022/09/14 00:08:14;;;;;;;6.70;2.95;;;;;;;;;;4991905;28;20041;-82
2022/09/14 00:10:43;;;;;;;7.63;2.88;;;;;;;;;;4983262;28;20029;-81
2022/09/14 00:13:10;;;;;;;6.30;2.72;;;;;;;;;;5003162;28;20472;-83
2022/09/14 00:15:37;;;;;;;6.70;2.90;;;;;;;;;;5005008;28;20033;-81
2022/09/14 00:18:03;;;;;;;8.05;2.90;;;;;;;;;;5010953;28;20116;-81
2022/09/14 00:20:29;;;;;;;10.65;2.90;;;;;;;;;;5002664;28;20041;-81
2022/09/14 00:22:55;;;;;;;8.00;2.90;;;;;;;;;;5003608;28;20199;-82
2022/09/14 00:25:20;;;;;;;8.35;2.60;;;;;;;;;;4990427;28;20143;-82
2022/09/14 00:27:45;;;;;;;7.75;3.08;;;;;;;;;;5002443;28;20038;-81
2022/09/14 00:30:11;;;;;;;8.10;3.10;;;;;;;;;;4991909;28;20056;-81
2022/09/14 00:32:39;;;;;;;7.68;3.00;;;;;;;;;;4984905;28;20116;-80
2022/09/14 00:35:05;;;;;;;9.32;2.65;;;;;;;;;;5004914;28;20805;-81
2022/09/14 00:37:31;;;;;;;5.40;2.70;;;;;;;;;;4995345;28;20384;-81
2022/09/14 00:39:56;;;;;;;6.47;2.63;;;;;;;;;;4990176;28;20037;-81
2022/09/14 00:42:22;;;;;;;6.60;2.80;;;;;;;;;;5000604;28;20115;-81
2022/09/14 00:44:47;;;;;;;6.53;2.70;;;;;;;;;;5000916;28;20033;-81
2022/09/14 00:47:13;;;;;;;7.88;2.83;;;;;;;;;;5001035;28;20034;-81
2022/09/14 00:49:40;;;;;;;6.05;2.67;;;;;;;;;;5003265;28;20075;-81
2022/09/14 00:52:16;;;;;;;8.52;3.10;;;;;;;;;;4999184;28;20037;-81
2022/09/14 00:54:49;;;;;;;6.72;2.67;;;;;;;;;;5002084;28;20051;-81
2022/09/14 00:57:15;;;;;;;5.60;2.78;;;;;;;;;;5024729;28;20033;-81
2022/09/14 00:59:45;;;;;;;8.68;2.50;;;;;;;;;;4986114;28;20029;-81
2022/09/14 01:02:13;;;;;;;8.80;2.42;;;;;;;;;;4999848;28;20396;-81
2022/09/14 01:04:39;;;;;;;8.32;2.70;;;;;;;;;;4993987;28;20118;-81
2022/09/14 01:07:26;;;;;;;7.22;3.00;;;;;;;;;;5000786;28;20631;-82
2022/09/14 01:10:00;;;;;;;7.85;2.95;;;;;;;;;;4992683;28;20436;-81
2022/09/14 01:12:44;;;;;;;6.18;2.45;;;;;;;;;;5007815;28;20452;-81
2022/09/14 01:15:26;;;;;;;4.35;2.28;;;;;;;;;;4997168;28;20029;-81
2022/09/14 01:18:02;;;;;;;9.23;2.55;;;;;;;;;;5042899;28;20135;-82
2022/09/14 01:20:34;;;;;;;9.30;2.47;;;;;;;;;;5009756;28;20056;-81
2022/09/14 01:23:08;;;;;;;6.88;2.42;;;;;;;;;;5020705;28;20437;-81
2022/09/14 01:25:40;;;;;;;4.55;2.10;;;;;;;;;;5015898;28;20040;-84
2022/09/14 01:28:12;;;;;;;5.63;2.13;;;;;;;;;;5025722;28;20044;-83
2022/09/14 01:30:40;;;;;;;4.93;2.17;;;;;;;;;;5026232;28;20116;-82
2022/09/14 01:33:13;;;;;;;6.70;2.53;;;;;;;;;;5010076;28;20377;-81
2022/09/14 01:35:45;;;;;;;7.57;2.40;;;;;;;;;;5026429;28;20116;-82
2022/09/14 01:38:21;;;;;;;8.55;2.25;;;;;;;;;;5014949;28;20447;-82
2022/09/14 01:40:48;;;;;;;6.30;2.63;;;;;;;;;;5002748;28;20085;-81
2022/09/14 01:43:19;;;;;;;3.83;2.10;;;;;;;;;;5043790;28;20500;-81
2022/09/14 01:45:48;;;;;;;6.47;2.38;;;;;;;;;;5009555;28;20029;-81
2022/09/14 01:48:17;;;;;;;7.03;2.33;;;;;;;;;;5034951;28;20112;-81
2022/09/14 01:50:48;;;;;;;8.38;2.40;;;;;;;;;;5010798;28;20037;-81
2022/09/14 01:53:33;;;;;;;7.20;2.50;;;;;;;;;;5020731;28;20467;-81
2022/09/14 01:56:02;;;;;;;7.28;2.75;;;;;;;;;;5008736;28;20029;-81
2022/09/14 01:58:49;;;;;;;8.02;2.35;;;;;;;;;;5038170;28;20041;-81
2022/09/14 02:01:19;;;;;;;7.95;2.60;;;;;;;;;;5033487;28;20037;-82
2022/09/14 02:03:57;;;;;;;7.80;2.47;;;;;;;;;;5009443;28;20491;-81
2022/09/14 02:06:31;;;;;;;6.10;2.38;;;;;;;;;;5012996;28;20120;-82
2022/09/14 02:08:56;;;;;;;6.63;2.20;;;;;;;;;;5033597;28;20111;-81
2022/09/14 02:11:21;;;;;;;6.63;2.42;;;;;;;;;;5017551;28;20041;-82
2022/09/14 02:13:47;;;;;;;8.52;2.75;;;;;;;;;;5007845;28;20033;-81
2022/09/14 02:16:12;;;;;;;8.65;2.78;;;;;;;;;;5002936;28;20116;-81
2022/09/14 02:18:38;;;;;;;7.13;3.00;;;;;;;;;;5027739;28;20032;-83
2022/09/14 02:21:08;;;;;;;5.78;2.50;;;;;;;;;;5009857;28;20037;-84
2022/09/14 02:23:37;;;;;;;4.35;2.50;;;;;;;;;;5004134;28;20039;-80
2022/09/14 02:26:03;;;;;;;6.57;2.70;;;;;;;;;;5008354;28;20068;-81
2022/09/14 02:28:28;;;;;;;5.40;2.65;;;;;;;;;;5015405;28;20041;-81
2022/09/14 02:31:15;;;;;;;6.88;2.78;;;;;;;;;;5026872;28;20502;-81
2022/09/14 02:33:56;;;;;;;7.35;2.70;;;;;;;;;;5017370;28;20048;-81
2022/09/14 02:36:45;;;;;;;8.43;2.60;;;;;;;;;;5025955;28;20128;-82
2022/09/14 02:39:25;;;;;;;6.00;3.03;;;;;;;;;;5002078;28;20033;-81
2022/09/14 02:41:58;;;;;;;8.10;2.88;;;;;;;;;;5022625;28;20507;-81
2022/09/14 02:44:40;;;;;;;10.20;3.17;;;;;;;;;;5015808;28;20387;-81
2022/09/14 02:47:15;;;;;;;7.88;3.13;;;;;;;;;;5036798;28;20501;-82
2022/09/14 02:50:03;;;;;;;8.13;2.60;;;;;;;;;;5009200;28;20601;-83
2022/09/14 02:52:44;;;;;;;7.85;3.13;;;;;;;;;;5025484;28;20084;-81
2022/09/14 02:55:16;;;;;;;8.30;2.92;;;;;;;;;;5017118;28;20048;-81
2022/09/14 02:58:07;;;;;;;8.85;3.13;;;;;;;;;;5019965;28;20049;-81
2022/09/14 03:00:39;;;;;;;10.77;2.90;;;;;;;;;;5008079;28;20482;-81
2022/09/14 03:03:05;;;;;;;6.50;2.72;;;;;;;;;;5015943;28;20025;-83
2022/09/14 03:05:31;;;;;;;7.45;2.65;;;;;;;;;;5018265;28;20041;-82
2022/09/14 03:07:57;;;;;;;7.80;2.83;;;;;;;;;;5003799;28;20041;-81
2022/09/14 03:10:23;;;;;;;7.95;3.00;;;;;;;;;;5037874;28;20048;-81
2022/09/14 03:12:48;;;;;;;8.85;3.08;;;;;;;;;;5007701;28;20037;-81
2022/09/14 03:15:14;;;;;;;5.50;2.45;;;;;;;;;;5026122;28;20035;-82
2022/09/14 03:17:44;;;;;;;6.47;2.85;;;;;;;;;;4996044;28;20037;-81
2022/09/14 03:20:10;;;;;;;7.93;2.95;;;;;;;;;;5009952;28;20844;-81
2022/09/14 03:22:35;;;;;;;9.77;3.45;;;;;;;;;;4998624;28;20037;-82
2022/09/14 03:25:01;;;;;;;8.45;3.20;;;;;;;;;;5000933;28;20461;-81
2022/09/14 03:27:26;;;;;;;6.68;2.95;;;;;;;;;;4988500;28;20485;-81
2022/09/14 03:29:51;;;;;;;6.15;2.83;;;;;;;;;;5022827;28;20075;-81
2022/09/14 03:32:17;;;;;;;6.38;2.90;;;;;;;;;;5020963;28;20033;-82
2022/09/14 03:34:42;;;;;;;10.07;3.05;;;;;;;;;;5003865;28;20124;-82
2022/09/14 03:37:08;;;;;;;6.53;2.83;;;;;;;;;;5009240;28;20059;-82
2022/09/14 03:39:33;;;;;;;5.82;3.00;;;;;;;;;;4989527;28;20036;-82
2022/09/14 03:41:58;;;;;;;7.43;3.22;;;;;;;;;;4991885;28;20041;-81
2022/09/14 03:44:24;;;;;;;7.20;2.67;;;;;;;;;;4996229;28;20037;-81
2022/09/14 03:46:50;;;;;;;5.38;2.67;;;;;;;;;;5018486;28;20389;-81
2022/09/14 03:49:15;;;;;;;6.55;2.90;;;;;;;;;;5007153;28;20041;-81
2022/09/14 03:51:40;;;;;;;7.20;2.85;;;;;;;;;;5009864;28;20049;-81
2022/09/14 03:54:06;;;;;;;13.32;4.07;;;;;;;;;;5008376;28;20497;-81
2022/09/14 03:56:31;;;;;;;6.72;2.92;;;;;;;;;;5004904;28;20400;-81
2022/09/14 03:58:56;;;;;;;7.18;2.90;;;;;;;;;;4986011;28;20109;-82
2022/09/14 04:01:22;;;;;;;7.47;2.80;;;;;;;;;;4987192;28;20532;-85
2022/09/14 04:03:48;;;;;;;7.70;2.60;;;;;;;;;;5007936;28;20524;-83
2022/09/14 04:06:14;;;;;;;5.53;2.72;;;;;;;;;;5004374;28;20033;-82
2022/09/14 04:08:41;;;;;;;7.35;3.20;;;;;;;;;;5000559;28;20416;-82
2022/09/14 04:11:10;;;;;;;7.95;3.10;;;;;;;;;;4982006;28;20037;-83
2022/09/14 04:13:36;;;;;;;6.18;2.75;;;;;;;;;;5021602;28;20488;-83
2022/09/14 04:16:02;;;;;;;7.40;3.17;;;;;;;;;;5003409;28;20071;-83
2022/09/14 04:18:27;;;;;;;7.07;3.00;;;;;;;;;;5013776;28;20049;-82
2022/09/14 04:21:16;;;;;;;9.48;3.25;;;;;;;;;;5008755;28;20471;-82
2022/09/14 04:23:41;;;;;;;8.90;3.40;;;;;;;;;;5039375;28;20041;-82
2022/09/14 04:26:11;;;;;;;9.50;3.17;;;;;;;;;;5009694;28;20483;-82
2022/09/14 04:28:37;;;;;;;6.18;3.10;;;;;;;;;;5004664;28;20037;-82
2022/09/14 04:31:02;;;;;;;8.52;3.53;;;;;;;;;;5022299;28;20545;-79
2022/09/14 04:33:32;;;;;;;7.85;3.28;;;;;;;;;;5019562;28;20048;-79
2022/09/14 04:36:29;;;;;;;7.00;3.00;;;;;;;;;;5005506;28;20040;-79
2022/09/14 04:39:00;;;;;;;7.90;2.97;;;;;;;;;;5036374;28;20110;-79
2022/09/14 04:41:26;;;;;;;8.48;3.38;;;;;;;;;;4990565;28;20033;-79
2022/09/14 04:43:52;;;;;;;6.78;3.13;;;;;;;;;;4972312;28;20040;-81
2022/09/14 04:46:26;;;;;;;10.30;3.22;;;;;;;;;;5025522;28;20108;-80
2022/09/14 04:48:54;;;;;;;5.93;3.00;;;;;;;;;;5016379;28;20099;-80
2022/09/14 04:51:22;;;;;;;6.55;3.17;;;;;;;;;;5002592;28;20084;-79
2022/09/14 04:53:49;;;;;;;;;;;;;;;;;;5032271;28;20053;-79
2022/09/14 04:56:15;;;;;;;6.07;2.90;;;;;;;;;;5048291;28;19939;-80
2022/09/14 04:58:49;;;;;;;7.28;3.22;;;;;;;;;;5026876;28;20437;-78
2022/09/14 05:01:16;;;;;;;8.48;3.40;;;;;;;;;;5012518;28;20112;-79
2022/09/14 05:03:45;;;;;;;7.90;2.92;;;;;;;;;;5015421;28;20044;-83
2022/09/14 05:06:20;;;;;;;6.53;2.97;;;;;;;;;;5018892;28;20432;-83
2022/09/14 05:08:46;;;;;;;6.85;3.08;;;;;;;;;;5021073;28;20049;-83
2022/09/14 05:11:17;;;;;;;8.88;3.28;;;;;;;;;;5014209;28;20072;-83
2022/09/14 05:13:42;;;;;;;6.97;3.40;;;;;;;;;;5013835;28;20053;-83
2022/09/14 05:16:09;;;;;;;8.88;4.45;;;;;;;;;;5030641;28;20492;-82
2022/09/14 05:18:38;;;;;;;9.55;4.35;;;;;;;;;;5018640;28;20037;-83
2022/09/14 05:21:05;;;;;;;8.65;3.40;;;;;;;;;;5019605;28;20029;-83
2022/09/14 05:23:31;;;;;;;8.88;3.90;;;;;;;;;;4991712;28;20075;-82
2022/09/14 05:25:57;;;;;;;8.30;3.15;;;;;;;;;;5009468;28;20064;-84
2022/09/14 05:28:24;;;;;;;5.72;3.05;;;;;;;;;;5026861;28;20043;-84
2022/09/14 05:30:49;;;;;;;10.15;3.20;;;;;;;;;;5010080;28;20481;-83
2022/09/14 05:33:14;;;;;;;7.80;3.30;;;;;;;;;;5024896;28;20029;-84
2022/09/14 05:35:40;;;;;;;10.23;3.70;;;;;;;;;;5013550;28;20099;-83
2022/09/14 05:38:05;;;;;;;37.33;6.22;;;;;;;;;;5029430;28;20090;-84
2022/09/14 05:40:31;;;;;;;90.35;12.98;;;;;;;;;;5016297;28;20033;-84
2022/09/14 05:42:56;;;;;;;61.33;8.27;;;;;;;;;;5018056;28;20030;-84
2022/09/14 05:45:21;;;;;;;9.15;2.85;;;;;;;;;;5023496;28;20423;-84
2022/09/14 05:47:48;;;;;;;7.70;2.90;;;;;;;;;;5027806;28;20039;-85
2022/09/14 05:50:15;;;;;;;8.60;3.03;;;;;;;;;;5021867;28;20025;-83
2022/09/14 05:52:43;;;;;;;9.67;3.47;;;;;;;;;;5021458;28;20489;-84
2022/09/14 05:55:09;;;;;;;7.95;2.55;;;;;;;;;;5022507;28;20071;-84
2022/09/14 05:57:35;;;;;;;7.50;2.85;;;;;;;;;;5020761;28;20061;-84
2022/09/14 06:00:06;;;;;;;9.13;3.00;;;;;;;;;;5022507;28;20049;-85
2022/09/14 06:02:34;;;;;;;5.88;2.60;;;;;;;;;;5007032;28;20116;-86
2022/09/14 06:05:00;;;;;;;7.47;2.63;;;;;;;;;;5010390;28;21028;-84
2022/09/14 06:07:26;;;;;;;7.93;2.40;;;;;;;;;;5001295;28;20097;-85
2022/09/14 06:09:51;;;;;;;5.10;2.40;;;;;;;;;;5012630;28;20056;-85
2022/09/14 06:12:16;;;;;;;9.38;3.05;;;;;;;;;;4995378;28;20072;-85
2022/09/14 06:14:42;;;;;;;9.23;2.47;;;;;;;;;;5024299;28;20051;-85
2022/09/14 06:17:08;;;;;;;6.05;2.47;;;;;;;;;;5010792;28;20443;-85
2022/09/14 06:19:34;;;;;;;9.95;2.75;;;;;;;;;;5016659;28;20052;-85
2022/09/14 06:22:07;;;;;;;7.30;2.50;;;;;;;;;;5034093;28;20474;-84
2022/09/14 06:24:32;;;;;;;5.18;2.30;;;;;;;;;;5020573;28;20084;-84
2022/09/14 06:26:58;;;;;;;5.30;2.30;;;;;;;;;;5027398;28;20410;-84
2022/09/14 06:29:23;;;;;;;10.00;2.45;;;;;;;;;;5012294;28;20037;-83
2022/09/14 06:31:49;;;;;;;7.85;2.10;;;;;;;;;;5000967;28;20038;-84
2022/09/14 06:34:14;;;;;;;7.30;2.20;;;;;;;;;;5024865;28;20041;-84
2022/09/14 06:36:40;;;;;;;7.60;2.10;;;;;;;;;;5031187;28;20087;-85
2022/09/14 06:39:05;;;;;;;6.35;2.33;;;;;;;;;;5028345;28;20040;-84
2022/09/14 06:41:31;;;;;;;5.88;1.92;;;;;;;;;;5026781;28;20348;-85
2022/09/14 06:43:58;;;;;;;7.72;2.30;;;;;;;;;;5022433;28;20484;-85
2022/09/14 06:46:29;;;;;;;6.90;2.20;;;;;;;;;;5004355;28;20439;-85
2022/09/14 06:49:08;;;;;;;9.95;2.20;;;;;;;;;;5021112;28;20033;-85
2022/09/14 06:51:36;;;;;;;11.00;2.42;;;;;;;;;;5031930;28;20048;-85
2022/09/14 06:54:03;;;;;;;6.20;1.80;;;;;;;;;;5009316;28;20068;-85
2022/09/14 06:56:34;;;;;;;9.55;2.25;;;;;;;;;;5031755;28;20029;-84
2022/09/14 06:59:00;;;;;;;6.18;1.70;;;;;;;;;;5023988;28;20080;-84
2022/09/14 07:01:28;;;;;;;6.45;1.77;;;;;;;;;;5017509;28;20452;-84
2022/09/14 07:03:57;;;;;;;5.18;1.63;;;;;;;;;;5019358;28;20034;-85
2022/09/14 07:06:24;;;;;;;6.85;1.70;;;;;;;;;;4996987;28;20040;-84
2022/09/14 07:08:50;;;;;;;;;;;;;;;;;;5025231;28;20053;-84
2022/09/14 07:11:18;;;;;;;6.60;1.80;;;;;;;;;;5025482;28;20332;-84
2022/09/14 07:13:45;;;;;;;7.63;1.90;;;;;;;;;;5016781;28;20099;-84
2022/09/14 07:16:11;;;;;;;8.77;1.90;;;;;;;;;;5008711;28;20419;-85
2022/09/14 07:18:37;;;;;;;7.78;1.63;;;;;;;;;;5006238;28;20503;-85
2022/09/14 07:21:08;;;;;;;5.32;1.63;;;;;;;;;;5024298;28;20037;-84
2022/09/14 07:23:35;;;;;;;5.85;2.15;;;;;;;;;;5018669;28;20586;-84
2022/09/14 07:26:02;;;;;;;;;;;;;;;;;;5007248;28;20040;-84
2022/09/14 07:28:27;;;;;;;7.25;1.90;;;;;;;;;;5022812;28;20501;-84
2022/09/14 07:30:52;;;;;;;6.55;1.60;;;;;;;;;;5012384;28;20037;-84
2022/09/14 07:33:18;;;;;;;5.97;1.70;;;;;;;;;;5014518;28;20128;-83
2022/09/14 07:35:43;;;;;;;11.35;2.17;;;;;;;;;;5019826;28;20041;-84
2022/09/14 07:38:09;;;;;;;7.75;1.98;;;;;;;;;;5012029;28;20040;-84
2022/09/14 07:40:34;;;;;;;6.00;1.55;;;;;;;;;;5036102;28;20120;-84
2022/09/14 07:43:00;;;;;;;7.57;1.85;;;;;;;;;;5017185;28;20032;-84
2022/09/14 07:45:26;;;;;;;5.72;1.60;;;;;;;;;;5011127;28;20475;-85
2022/09/14 07:47:51;;;;;;;7.30;1.40;;;;;;;;;;5036117;28;20029;-84
2022/09/14 07:50:17;;;;;;;6.78;1.55;;;;;;;;;;5020578;28;20387;-85
2022/09/14 07:52:43;;;;;;;6.97;1.17;;;;;;;;;;5013037;28;20037;-84
2022/09/14 07:55:11;;;;;;;7.90;1.77;;;;;;;;;;5027677;28;20048;-84
2022/09/14 07:57:37;;;;;;;6.57;1.33;;;;;;;;;;5005154;28;20511;-84
2022/09/14 08:00:03;;;;;;;5.93;1.23;;;;;;;;;;5021853;28;20034;-84
2022/09/14 08:02:29;;;;;;;4.97;1.10;;;;;;;;;;5004341;28;20040;-85
2022/09/14 08:04:55;;;;;;;5.43;1.33;;;;;;;;;;5017600;28;20048;-83
2022/09/14 08:07:20;;;;;;;13.43;1.33;;;;;;;;;;5021347;28;20038;-86
2022/09/14 08:09:46;;;;;;;5.85;1.42;;;;;;;;;;5003865;28;20120;-86
2022/09/14 08:12:14;;;;;;;7.72;1.58;;;;;;;;;;5021027;28;20040;-84
2022/09/14 08:14:40;;;;;;;5.32;1.55;;;;;;;;;;5011455;28;20036;-84
2022/09/14 08:17:06;;;;;;;5.13;1.20;;;;;;;;;;5011662;28;20056;-84
2022/09/14 08:19:32;;;;;;;5.88;1.40;;;;;;;;;;5023072;28;20029;-84
2022/09/14 08:21:57;;;;;;;10.30;1.80;;;;;;;;;;4999749;28;20037;-84
2022/09/14 08:24:23;;;;;;;8.43;1.40;;;;;;;;;;4996865;28;20055;-85
2022/09/14 08:26:48;;;;;;;9.02;1.48;;;;;;;;;;5013280;28;20033;-85
2022/09/14 08:29:15;;;;;;;5.82;1.20;;;;;;;;;;5025941;28;20388;-85
2022/09/14 08:31:42;;;;;;;10.63;1.27;;;;;;;;;;5020265;28;20032;-85
2022/09/14 08:34:07;;;;;;;5.72;1.67;;;;;;;;;;5028596;28;20057;-85
2022/09/14 08:36:38;;;;;;;7.85;1.00;;;;;;;;;;5020966;28;20028;-85
2022/09/14 08:39:05;;;;;;;6.03;1.20;;;;;;;;;;5024143;28;20032;-85
2022/09/14 08:41:37;;;;;;;6.35;1.38;;;;;;;;;;5011600;28;20049;-85
2022/09/14 08:44:22;;;;;;;8.20;1.38;;;;;;;;;;5010689;28;20113;-86
2022/09/14 08:46:53;;;;;;;4.88;1.02;;;;;;;;;;5018615;28;20033;-84
2022/09/14 08:49:40;;;;;;;5.38;1.00;;;;;;;;;;5030214;28;20045;-85
2022/09/14 08:52:12;;;;;;;4.68;1.25;;;;;;;;;;5023905;28;20040;-85
2022/09/14 08:54:38;;;;;;;4.65;0.90;;;;;;;;;;5006658;28;20037;-86
2022/09/14 08:57:17;;;;;;;4.30;0.90;;;;;;;;;;5024580;28;20041;-86
2022/09/14 09:00:08;;;;;;;5.03;1.00;;;;;;;;;;5020777;28;20788;-85
2022/09/14 09:02:37;;;;;;;6.93;1.00;;;;;;;;;;5010216;28;20033;-86
2022/09/14 09:05:14;;;;;;;4.57;1.10;;;;;;;;;;5033510;28;20492;-78
2022/09/14 09:07:47;;;;;;;5.07;0.95;;;;;;;;;;5024331;28;20029;-78
2022/09/14 09:10:13;;;;;;;7.95;1.25;;;;;;;;;;5027714;28;20057;-79
2022/09/14 09:12:44;;;;;;;5.45;1.10;;;;;;;;;;5019903;28;20056;-77
2022/09/14 09:15:26;;;;;;;5.20;1.50;;;;;;;;;;5035375;28;20046;-78
2022/09/14 09:17:56;;;;;;;7.32;1.00;;;;;;;;;;5009333;28;20049;-78
2022/09/14 09:20:38;;;;;;;4.80;1.08;;;;;;;;;;4986666;28;20044;-79
2022/09/14 09:23:11;;;;;;;10.10;1.83;;;;;;;;;;4986793;28;20049;-79
2022/09/14 09:26:08;;;;;;;5.35;1.00;;;;;;;;;;4997501;28;20497;-79
2022/09/14 09:28:33;;;;;;;4.97;1.00;;;;;;;;;;5021300;28;20100;-77
2022/09/14 09:31:05;;;;;;;5.07;1.00;;;;;;;;;;5001849;28;20030;-80
2022/09/14 09:33:30;;;;;;;4.85;1.25;;;;;;;;;;4997446;28;20065;-78
2022/09/14 09:35:56;;;;;;;5.85;1.20;;;;;;;;;;4976386;28;20430;-78
2022/09/14 09:38:24;;;;;;;3.83;0.80;;;;;;;;;;4992914;28;20045;-79
2022/09/14 09:41:25;;;;;;;6.13;1.05;;;;;;;;;;4986410;28;20033;-79
2022/09/14 09:44:05;;;;;;;3.90;0.90;;;;;;;;;;5002399;28;20454;-79
2022/09/14 09:46:32;;;;;;;6.78;1.13;;;;;;;;;;5009226;28;20053;-80
2022/09/14 09:49:02;;;;;;;4.85;1.30;;;;;;;;;;4988465;28;20034;-80
2022/09/14 09:51:29;;;;;;;4.78;0.75;;;;;;;;;;4999516;28;20563;-79
2022/09/14 09:54:13;;;;;;;;;;;;;;;;;;5001863;28;21078;-80
2022/09/14 09:56:51;;;;;;;5.10;1.20;;;;;;;;;;5021323;28;19923;-80
2022/09/14 09:59:35;;;;;;;5.75;1.13;;;;;;;;;;4992731;28;20396;-79
2022/09/14 10:02:19;;;;;;;5.65;0.98;;;;;;;;;;5002492;28;20034;-80
2022/09/14 10:05:09;;;;;;;7.68;0.95;;;;;;;;;;5008925;28;20033;-79
2022/09/14 10:07:38;;;;;;;6.45;1.00;;;;;;;;;;5009853;28;20030;-79
2022/09/14 10:10:03;;;;;;;5.38;0.90;;;;;;;;;;5017571;28;20394;-79
2022/09/14 10:12:29;;;;;;;6.07;1.08;;;;;;;;;;5015609;28;20069;-79
2022/09/14 10:15:17;;;;;;;5.13;1.10;;;;;;;;;;5009454;28;20104;-79
2022/09/14 10:18:15;;;;;;;4.80;1.20;;;;;;;;;;5028845;28;20049;-80
2022/09/14 10:21:06;;;;;;;5.55;1.17;;;;;;;;;;5024326;28;20057;-78
2022/09/14 10:23:36;;;;;;;6.57;1.50;;;;;;;;;;5013236;28;20060;-80
2022/09/14 10:26:10;;;;;;;6.07;1.30;;;;;;;;;;5016050;28;20068;-81
2022/09/14 10:28:36;;;;;;;4.45;1.00;;;;;;;;;;5031474;28;20820;-81
2022/09/14 10:31:29;;;;;;;3.42;0.98;;;;;;;;;;5019971;28;20037;-80
2022/09/14 10:33:56;;;;;;;5.03;1.10;;;;;;;;;;5014037;28;20055;-80
2022/09/14 10:36:30;;;;;;;3.55;0.90;;;;;;;;;;5004701;28;20052;-80
2022/09/14 10:39:13;;;;;;;6.22;0.95;;;;;;;;;;5033414;28;20045;-80
2022/09/14 10:42:00;;;;;;;6.60;1.17;;;;;;;;;;5005836;28;20030;-81
2022/09/14 10:44:45;;;;;;;9.10;1.25;;;;;;;;;;5024508;28;20041;-79
2022/09/14 10:47:25;;;;;;;4.78;1.00;;;;;;;;;;5008576;28;20116;-80
2022/09/14 10:50:10;;;;;;;6.55;1.27;;;;;;;;;;5023323;28;20036;-80
2022/09/14 10:53:13;;;;;;;5.85;1.33;;;;;;;;;;5025987;28;20047;-80
2022/09/14 10:56:06;;;;;;;4.20;0.77;;;;;;;;;;5025460;28;20163;-80
2022/09/14 10:59:30;;;;;;;5.75;1.20;;;;;;;;;;5017863;28;20060;-81
2022/09/14 11:02:08;;;;;;;5.20;1.00;;;;;;;;;;4930281;29;20706;-80
2022/09/14 11:04:45;;;;;;;3.78;0.90;;;;;;;;;;4925882;29;20076;-80
2022/09/14 11:07:26;;;;;;;6.20;1.10;;;;;;;;;;4994959;28;20040;-81
2022/09/14 11:10:00;;;;;;;5.32;1.00;;;;;;;;;;5037121;28;20112;-80
2022/09/14 11:12:49;;;;;;;5.75;1.00;;;;;;;;;;5032818;28;20048;-81
2022/09/14 11:15:26;;;;;;;4.18;0.90;;;;;;;;;;5010110;28;20037;-81
2022/09/14 11:18:10;;;;;;;5.82;1.05;;;;;;;;;;5026563;28;20050;-82
2022/09/14 11:21:04;;;;;;;5.82;1.05;;;;;;;;;;5010873;28;20032;-82
2022/09/14 11:23:38;;;;;;;4.75;0.70;;;;;;;;;;4999146;28;20032;-81
2022/09/14 11:26:31;;;;;;;3.65;0.93;;;;;;;;;;5005171;28;20474;-81
2022/09/14 11:29:15;;;;;;;5.30;1.02;;;;;;;;;;5001884;28;20570;-79
2022/09/14 11:32:12;;;;;;;7.63;1.15;;;;;;;;;;5037290;28;20481;-81
2022/09/14 11:35:14;;;;;;;5.43;1.00;;;;;;;;;;4998194;28;20507;-80
2022/09/14 11:37:42;;;;;;;5.95;1.00;;;;;;;;;;5022519;28;20552;-80
2022/09/14 11:40:18;;;;;;;4.82;0.85;;;;;;;;;;5029353;28;20025;-80
2022/09/14 11:43:04;;;;;;;5.45;0.85;;;;;;;;;;5002923;28;20515;-81
2022/09/14 11:45:35;;;;;;;5.80;1.03;;;;;;;;;;5023435;28;20071;-81
2022/09/14 11:48:25;;;;;;;4.82;0.93;;;;;;;;;;5006493;28;20731;-80
2022/09/14 11:51:01;;;;;;;7.80;1.50;;;;;;;;;;4985784;28;20041;-80
2022/09/14 11:53:28;;;;;;;5.22;1.10;;;;;;;;;;4999943;28;20033;-80
2022/09/14 11:55:59;;;;;;;3.67;0.93;;;;;;;;;;4988720;28;20403;-81
2022/09/14 11:58:29;;;;;;;6.55;0.95;;;;;;;;;;5018566;28;20041;-80
2022/09/14 12:01:18;;;;;;;5.20;1.10;;;;;;;;;;5011071;28;20029;-80
2022/09/14 12:03:54;;;;;;;5.60;0.98;;;;;;;;;;5029124;28;20021;-81
2022/09/14 12:06:28;;;;;;;4.88;0.88;;;;;;;;;;5039465;28;20042;-80
2022/09/14 12:09:10;;;;;;;6.43;1.10;;;;;;;;;;5027551;28;20026;-80
2022/09/14 12:11:36;;;;;;;5.30;1.38;;;;;;;;;;5030734;28;20085;-81
2022/09/14 12:14:13;;;;;;;6.20;1.10;;;;;;;;;;5015368;28;20535;-80
2022/09/14 12:17:16;;;;;;;4.72;0.93;;;;;;;;;;5033335;28;20040;-80
2022/09/14 12:19:43;;;;;;;6.38;1.10;;;;;;;;;;5039487;28;20033;-80
2022/09/14 12:22:19;;;;;;;6.22;0.88;;;;;;;;;;5020692;28;20029;-80
2022/09/14 12:24:48;;;;;;;5.78;1.27;;;;;;;;;;5037271;28;20088;-80
2022/09/14 12:27:22;;;;;;;2.83;0.90;;;;;;;;;;5032183;28;20484;-79
2022/09/14 12:29:50;;;;;;;3.90;1.23;;;;;;;;;;5034148;28;20030;-79
2022/09/14 12:32:38;;;;;;;3.95;0.95;;;;;;;;;;5000604;28;20033;-80
2022/09/14 12:35:55;;;;;;;8.18;1.50;;;;;;;;;;5037611;28;20044;-80
2022/09/14 12:38:29;;;;;;;11.50;1.58;;;;;;;;;;4990524;28;20092;-81
2022/09/14 12:40:57;;;;;;;4.43;1.25;;;;;;;;;;5021596;28;21603;-79
2022/09/14 12:43:32;;;;;;;7.20;1.55;;;;;;;;;;5019713;28;20041;-79
2022/09/14 12:46:19;;;;;;;5.97;1.05;;;;;;;;;;5026362;28;20472;-81
2022/09/14 12:48:47;;;;;;;5.70;1.02;;;;;;;;;;5022641;28;20047;-81
2022/09/14 12:54:45;;;;;;;4.70;0.95;;;;;;;;;;5026659;28;20049;-80
2022/09/14 12:57:33;;;;;;;7.75;1.00;;;;;;;;;;5032052;28;20393;-79
2022/09/14 13:00:14;;;;;;;;;;;;;;;;;;5029949;28;20037;-80
2022/09/14 13:02:58;;;;;;;6.07;1.23;;;;;;;;;;5009209;28;19924;-80
2022/09/14 13:05:27;;;;;;;4.03;1.05;;;;;;;;;;5021130;28;20438;-79
2022/09/14 13:08:02;;;;;;;5.65;1.10;;;;;;;;;;5010298;28;20056;-79
2022/09/14 13:10:36;;;;;;;4.45;1.25;;;;;;;;;;5015603;28;20025;-80
2022/09/14 13:13:07;;;;;;;4.50;0.90;;;;;;;;;;5022627;28;20041;-80
2022/09/14 13:15:35;;;;;;;7.88;1.10;;;;;;;;;;5020423;28;20432;-81
2022/09/14 13:18:02;;;;;;;8.32;1.20;;;;;;;;;;5040106;28;20069;-80
2022/09/14 13:20:29;;;;;;;5.78;1.85;;;;;;;;;;5011998;28;20055;-80
2022/09/14 13:22:57;;;;;;;5.55;1.25;;;;;;;;;;5008789;28;20037;-80
2022/09/14 13:25:33;;;;;;;5.32;1.33;;;;;;;;;;5018516;28;20103;-81
2022/09/14 13:28:22;;;;;;;6.50;0.95;;;;;;;;;;5033234;28;20029;-81
2022/09/14 13:31:29;;;;;;;4.60;1.17;;;;;;;;;;5034341;28;20436;-81
2022/09/14 13:33:57;;;;;;;3.92;0.98;;;;;;;;;;5009933;28;20033;-80
2022/09/14 13:36:26;;;;;;;5.07;1.10;;;;;;;;;;5019732;28;20064;-81
2022/09/14 13:38:52;;;;;;;6.25;1.60;;;;;;;;;;5023985;28;20029;-80
2022/09/14 13:41:21;;;;;;;6.07;1.05;;;;;;;;;;5026244;28;20407;-80
2022/09/14 13:43:48;;;;;;;4.45;1.02;;;;;;;;;;5018396;28;20025;-82
2022/09/14 13:46:17;;;;;;;8.05;1.33;;;;;;;;;;5021414;28;20033;-81
2022/09/14 13:48:43;;;;;;;5.25;1.00;;;;;;;;;;5011325;28;20765;-81
2022/09/14 13:51:11;;;;;;;5.47;1.10;;;;;;;;;;5024908;28;20033;-81
2022/09/14 13:53:50;;;;;;;6.40;1.52;;;;;;;;;;5010638;28;20060;-81
2022/09/14 13:56:37;;;;;;;7.18;1.40;;;;;;;;;;5026492;28;20033;-82
2022/09/14 13:59:05;;;;;;;4.80;1.17;;;;;;;;;;5010724;28;20120;-82
2022/09/14 14:01:33;;;;;;;5.60;0.95;;;;;;;;;;5037151;28;20412;-82
2022/09/14 14:03:58;;;;;;;5.25;1.23;;;;;;;;;;5011531;28;20037;-83
2022/09/14 14:06:33;;;;;;;5.28;1.30;;;;;;;;;;5001675;28;20192;-81
2022/09/14 14:09:07;;;;;;;5.78;1.25;;;;;;;;;;5003174;28;20032;-82
2022/09/14 14:11:50;;;;;;;4.72;0.90;;;;;;;;;;5009955;28;20115;-82
2022/09/14 14:14:27;;;;;;;4.45;1.10;;;;;;;;;;4995940;28;20124;-82
2022/09/14 14:17:11;;;;;;;4.93;0.95;;;;;;;;;;4992014;28;20059;-82
2022/09/14 14:19:39;;;;;;;5.38;1.00;;;;;;;;;;5027643;28;20484;-81
2022/09/14 14:22:18;;;;;;;6.38;1.33;;;;;;;;;;5006063;28;20034;-82
2022/09/14 14:24:48;;;;;;;4.72;1.02;;;;;;;;;;5023231;28;20069;-79
2022/09/14 14:27:25;;;;;;;4.38;1.02;;;;;;;;;;5025508;28;20558;-80
2022/09/14 14:29:51;;;;;;;5.80;0.90;;;;;;;;;;5027623;28;20056;-81
2022/09/14 14:32:16;;;;;;;5.97;1.15;;;;;;;;;;5023786;28;20029;-80
2022/09/14 14:34:42;;;;;;;5.63;1.08;;;;;;;;;;5024234;28;20064;-80
2022/09/14 14:37:07;;;;;;;5.13;1.30;;;;;;;;;;5037183;28;20036;-80
2022/09/14 14:39:32;;;;;;;6.03;1.27;;;;;;;;;;5032060;28;20036;-80
2022/09/14 14:42:00;;;;;;;6.30;1.65;;;;;;;;;;5011628;28;20037;-79
2022/09/14 14:44:28;;;;;;;6.03;1.00;;;;;;;;;;5022353;28;20503;-81
2022/09/14 14:46:56;;;;;;;5.35;1.00;;;;;;;;;;5009676;28;20033;-80
2022/09/14 14:49:22;;;;;;;6.10;1.05;;;;;;;;;;5004492;28;20073;-80
2022/09/14 14:51:48;;;;;;;4.90;1.40;;;;;;;;;;5032212;28;20103;-80
2022/09/14 14:54:18;;;;;;;5.30;1.10;;;;;;;;;;5019802;28;20046;-80
2022/09/14 14:56:45;;;;;;;6.13;1.30;;;;;;;;;;5035129;28;20041;-80
2022/09/14 14:59:29;;;;;;;4.45;1.02;;;;;;;;;;5006613;28;20039;-93
2022/09/14 15:01:56;;;;;;;4.35;1.08;;;;;;;;;;5015605;28;20025;-81
2022/09/14 15:04:21;;;;;;;5.32;1.17;;;;;;;;;;5000611;28;20041;-80
2022/09/14 15:06:47;;;;;;;4.90;1.00;;;;;;;;;;5000246;28;20036;-81
2022/09/14 15:09:14;;;;;;;5.57;1.10;;;;;;;;;;5018405;28;20088;-81
2022/09/14 15:11:40;;;;;;;5.07;1.00;;;;;;;;;;5019395;28;20029;-80
2022/09/14 15:14:10;;;;;;;5.65;1.25;;;;;;;;;;5010329;28;20040;-81